Time;durP1;ratioP1;P1;durP2;ratioP2;P2;SDS_P1;SDS_P2;PMS_P1;PMS_P2;Temp;Humidity;BMP_temperature;BMP_pressure;BME280_temperature;BME280_humidity;BME280_pressure;Samples;Min_cycle;Max_cycle;Signal;HPM_P1;HPM_P2
2023/05/11 00:00:38;;;;;;;4.53;0.90;;;;;;;14.12;66.45;100446.97;4164352;28;20061;-60
2023/05/11 00:02:41;;;;;;;1.55;1.13;;;;;;;14.11;66.09;100441.75;4130305;28;20038;-60
2023/05/11 00:04:44;;;;;;;2.38;0.88;;;;;;;14.09;66.75;100444.38;4164251;28;20384;-60
2023/05/11 00:06:46;;;;;;;2.47;0.70;;;;;;;14.09;67.16;100443.47;4130477;28;20042;-61
2023/05/11 00:08:50;;;;;;;2.95;1.15;;;;;;;14.08;66.73;100446.97;4146799;28;20484;-60
2023/05/11 00:10:52;;;;;;;1.33;0.70;;;;;;;14.06;66.59;100446.09;4164139;28;20041;-60
2023/05/11 00:12:55;;;;;;;2.03;1.00;;;;;;;14.00;66.81;100444.34;4146382;28;20041;-60
2023/05/11 00:14:58;;;;;;;1.52;0.65;;;;;;;13.98;67.61;100446.09;4146615;28;20038;-59
2023/05/11 00:17:02;;;;;;;1.67;0.82;;;;;;;13.95;67.15;100444.34;4164158;28;20033;-60
2023/05/11 00:19:05;;;;;;;2.08;0.93;;;;;;;13.87;67.19;100443.50;4164170;28;20099;-59
2023/05/11 00:21:08;;;;;;;2.45;1.10;;;;;;;13.85;67.56;100440.00;4162846;28;20037;-60
2023/05/11 00:23:11;;;;;;;1.98;0.88;;;;;;;13.82;68.43;100434.78;4163821;28;20091;-60
2023/05/11 00:25:14;;;;;;;2.10;1.00;;;;;;;13.79;68.92;100440.00;4146315;28;20049;-60
2023/05/11 00:27:17;;;;;;;1.73;0.90;;;;;;;13.76;69.66;100447.84;4164073;28;20045;-60
2023/05/11 00:29:20;;;;;;;1.77;0.90;;;;;;;13.74;69.68;100446.94;4146481;28;20041;-59
2023/05/11 00:31:23;;;;;;;2.30;1.00;;;;;;;13.73;69.15;100448.69;4146525;28;20096;-60
2023/05/11 00:33:27;;;;;;;2.17;0.80;;;;;;;13.76;69.62;100445.22;4146316;28;20048;-60
2023/05/11 00:35:30;;;;;;;1.95;0.82;;;;;;;13.72;69.43;100439.13;4163874;28;20037;-60
2023/05/11 00:37:33;;;;;;;2.83;0.90;;;;;;;13.69;68.76;100435.63;4146462;28;20076;-59
2023/05/11 00:39:39;;;;;;;4.15;1.40;;;;;;;13.69;69.52;100438.25;4130137;28;20085;-59
2023/05/11 00:41:42;;;;;;;2.78;0.90;;;;;;;13.64;68.92;100430.41;4130246;28;20537;-61
2023/05/11 00:43:45;;;;;;;1.80;0.95;;;;;;;13.64;69.26;100430.41;4163743;28;20075;-60
2023/05/11 00:45:48;;;;;;;3.63;0.77;;;;;;;13.62;69.39;100437.34;4146416;28;20049;-61
2023/05/11 00:47:51;;;;;;;1.40;0.88;;;;;;;13.61;69.44;100433.88;4146762;28;20512;-61
2023/05/11 00:49:56;;;;;;;2.70;0.90;;;;;;;13.64;68.61;100430.41;4162657;28;20052;-60
2023/05/11 00:52:01;;;;;;;0.80;0.80;;;;;;;13.60;69.60;100432.13;4163909;28;20442;-60
2023/05/11 00:54:08;;;;;;;2.00;0.73;;;;;;;13.59;69.48;100426.91;4146244;28;20054;-60
2023/05/11 00:56:10;;;;;;;3.80;0.80;;;;;;;13.54;69.69;100429.53;4165847;28;20041;-60
2023/05/11 00:58:14;;;;;;;6.18;0.98;;;;;;;13.55;69.74;100430.38;4167164;28;20495;-60
2023/05/11 01:00:17;;;;;;;5.57;0.88;;;;;;;13.56;69.58;100433.00;4167109;28;20075;-60
2023/05/11 01:02:21;;;;;;;2.15;0.80;;;;;;;13.55;69.80;100431.28;4166876;28;20103;-61
2023/05/11 01:04:26;;;;;;;0.98;0.80;;;;;;;13.53;69.61;100438.22;4149358;28;20041;-60
2023/05/11 01:06:43;;;;;;;2.10;1.15;;;;;;;13.51;69.67;100424.28;4167050;28;20042;-60
2023/05/11 01:08:55;;;;;;;2.55;0.90;;;;;;;13.50;70.49;100433.00;4149434;28;20100;-61
2023/05/11 01:11:05;;;;;;;3.15;0.70;;;;;;;13.45;70.62;100429.50;4149445;28;20042;-60
2023/05/11 01:13:17;;;;;;;3.63;0.80;;;;;;;13.38;71.13;100433.84;4166788;28;20442;-59
2023/05/11 01:15:28;;;;;;;2.58;1.00;;;;;;;13.37;71.18;100429.47;4149326;28;20132;-60
2023/05/11 01:17:39;;;;;;;1.50;0.75;;;;;;;13.41;70.70;100432.97;4165780;28;20045;-60
2023/05/11 01:19:47;;;;;;;1.20;0.75;;;;;;;13.38;70.72;100439.06;4149372;28;20069;-60
2023/05/11 01:21:52;;;;;;;2.00;0.80;;;;;;;13.37;70.81;100436.44;4149239;28;20433;-60
2023/05/11 01:24:19;;;;;;;5.75;1.10;;;;;;;13.34;70.81;100437.31;4148989;28;20411;-60
2023/05/11 01:26:35;;;;;;;1.48;1.20;;;;;;;13.34;70.87;100433.81;4165496;28;20091;-60
2023/05/11 01:29:02;;;;;;;0.88;0.75;;;;;;;13.33;71.09;100434.66;4166731;28;20491;-60
2023/05/11 01:31:09;;;;;;;2.97;0.98;;;;;;;13.33;70.87;100439.88;4149067;28;20042;-60
2023/05/11 01:33:14;;;;;;;3.65;1.35;;;;;;;13.37;70.71;100441.69;4148895;28;20033;-60
2023/05/11 01:35:20;;;;;;;3.40;0.95;;;;;;;13.35;70.25;100448.66;4148995;28;20077;-60
2023/05/11 01:37:25;;;;;;;0.85;0.60;;;;;;;13.29;70.88;100439.03;4149034;28;20522;-60
2023/05/11 01:39:34;;;;;;;3.72;1.60;;;;;;;13.28;70.42;100435.50;4149011;28;20476;-60
2023/05/11 01:41:40;;;;;;;1.80;1.00;;;;;;;13.28;70.74;100438.13;4166521;28;20487;-60
2023/05/11 01:43:47;;;;;;;3.88;1.30;;;;;;;13.30;70.83;100445.09;4148763;28;20393;-59
2023/05/11 01:45:53;;;;;;;5.00;1.15;;;;;;;13.26;71.33;100439.88;4148866;28;20052;-60
2023/05/11 01:48:00;;;;;;;1.63;1.02;;;;;;;13.24;71.06;100444.22;4165183;28;20041;-60
2023/05/11 01:50:04;;;;;;;2.67;1.05;;;;;;;13.25;71.13;100443.34;4148928;28;20461;-61
2023/05/11 01:52:08;;;;;;;;;;;;;;;13.13;71.31;100438.09;4165420;28;20398;-61
2023/05/11 01:54:12;;;;;;;3.25;1.23;;;;;;;13.19;71.37;100447.69;4166352;28;19925;-60
2023/05/11 01:56:16;;;;;;;2.88;1.15;;;;;;;13.21;71.25;100440.72;4148653;28;20144;-61
2023/05/11 01:58:21;;;;;;;1.15;1.05;;;;;;;13.21;70.99;100438.97;4148799;28;20042;-61
2023/05/11 02:00:24;;;;;;;2.80;1.00;;;;;;;13.23;71.60;100439.00;4148764;28;20543;-60
2023/05/11 02:02:29;;;;;;;2.28;1.10;;;;;;;13.20;71.04;100442.47;4166042;28;20041;-60
2023/05/11 02:04:36;;;;;;;2.30;1.10;;;;;;;13.18;71.26;100435.50;4148646;28;20063;-61
2023/05/11 02:06:41;;;;;;;1.40;0.70;;;;;;;13.14;71.37;100434.63;4132102;28;20290;-61
2023/05/11 02:08:45;;;;;;;4.53;1.30;;;;;;;13.14;71.28;100436.34;4148260;28;20042;-61
2023/05/11 02:10:50;;;;;;;2.45;1.20;;;;;;;13.14;71.27;100434.63;4148467;28;20128;-61
2023/05/11 02:12:53;;;;;;;;;;;;;;;13.04;71.96;100432.81;4132460;28;20046;-61
2023/05/11 02:14:58;;;;;;;4.57;1.30;;;;;;;13.00;72.11;100429.34;4148402;28;20020;-61
2023/05/11 02:17:03;;;;;;;4.97;1.10;;;;;;;12.96;72.08;100426.72;4148509;28;20068;-61
2023/05/11 02:19:07;;;;;;;3.03;1.33;;;;;;;12.95;72.04;100432.81;4148535;28;20046;-61
2023/05/11 02:21:15;;;;;;;5.03;1.42;;;;;;;12.97;72.28;100428.47;4148433;28;20073;-61
2023/05/11 02:23:19;;;;;;;3.33;1.27;;;;;;;13.00;71.95;100425.88;4164522;28;20065;-61
2023/05/11 02:25:23;;;;;;;3.95;1.27;;;;;;;12.99;71.79;100430.22;4164509;28;20037;-61
2023/05/11 02:27:26;;;;;;;2.85;1.60;;;;;;;13.01;72.30;100430.22;4165848;28;20033;-61
2023/05/11 02:29:30;;;;;;;3.50;1.45;;;;;;;13.01;72.14;100425.00;4132050;28;20058;-60
2023/05/11 02:31:40;;;;;;;4.32;1.60;;;;;;;12.99;71.77;100430.22;4148206;28;20058;-61
2023/05/11 02:33:48;;;;;;;4.47;1.83;;;;;;;13.03;72.15;100436.31;4148063;28;20038;-60
2023/05/11 02:35:56;;;;;;;5.00;1.45;;;;;;;13.04;71.77;100428.50;4131837;28;20038;-61
2023/05/11 02:38:04;;;;;;;4.68;1.52;;;;;;;13.06;71.54;100426.75;4148181;28;20512;-61
2023/05/11 02:40:15;;;;;;;2.90;1.50;;;;;;;13.07;71.30;100423.28;4148207;28;20041;-61
2023/05/11 02:42:22;;;;;;;3.58;1.50;;;;;;;13.08;71.39;100429.38;4147760;28;20046;-61
2023/05/11 02:44:31;;;;;;;4.28;1.90;;;;;;;13.06;71.22;100415.44;4148043;28;20060;-61
2023/05/11 02:46:36;;;;;;;2.50;1.70;;;;;;;13.06;71.20;100416.31;4148042;28;20034;-61
2023/05/11 02:48:43;;;;;;;6.88;2.33;;;;;;;13.10;71.16;100422.44;4148265;28;20404;-61
2023/05/11 02:50:48;;;;;;;2.75;1.40;;;;;;;13.09;70.86;100423.28;4147814;28;20041;-61
2023/05/11 02:52:55;;;;;;;3.72;1.60;;;;;;;13.08;71.34;100425.03;4147613;28;20082;-60
2023/05/11 02:55:01;;;;;;;1.83;1.20;;;;;;;13.04;71.85;100425.88;4147776;28;20487;-61
2023/05/11 02:57:23;;;;;;;2.30;1.20;;;;;;;12.98;72.10;100428.47;4150604;28;20092;-61
2023/05/11 02:59:45;;;;;;;2.38;1.27;;;;;;;12.93;72.32;100428.44;4150410;28;20200;-61
2023/05/11 03:02:07;;;;;;;1.73;1.58;;;;;;;12.91;72.20;100427.56;4150168;28;20092;-61
2023/05/11 03:04:29;;;;;;;3.80;1.73;;;;;;;12.88;72.39;100429.31;4150217;28;20108;-61
2023/05/11 03:06:51;;;;;;;3.30;1.80;;;;;;;12.85;72.24;100419.72;4150296;28;20056;-61
2023/05/11 03:08:54;;;;;;;7.85;2.05;;;;;;;12.85;72.73;100426.66;4147674;28;20401;-61
2023/05/11 03:10:59;;;;;;;4.50;1.55;;;;;;;12.78;72.49;100423.19;4147488;28;20074;-60
2023/05/11 03:13:03;;;;;;;6.28;1.48;;;;;;;12.78;72.87;100428.38;4147312;28;20046;-61
2023/05/11 03:15:10;;;;;;;3.67;1.45;;;;;;;12.82;72.55;100426.66;4163896;28;20104;-60
2023/05/11 03:17:16;;;;;;;5.40;1.90;;;;;;;12.79;72.80;100437.97;4163909;28;20116;-61
2023/05/11 03:19:19;;;;;;;1.80;1.48;;;;;;;12.78;72.82;100431.00;4146418;28;20038;-60
2023/05/11 03:21:24;;;;;;;2.35;1.30;;;;;;;12.77;73.00;100429.25;4164865;28;20084;-61
2023/05/11 03:23:28;;;;;;;18.63;4.03;;;;;;;12.72;73.39;100438.81;4147103;28;20034;-61
2023/05/11 03:25:31;;;;;;;1.90;1.27;;;;;;;12.72;73.46;100430.97;4147136;28;20069;-61
2023/05/11 03:27:37;;;;;;;3.40;2.03;;;;;;;12.71;73.13;100429.22;4163721;28;20517;-61
2023/05/11 03:29:44;;;;;;;4.00;1.75;;;;;;;12.71;72.99;100434.44;4163725;28;20045;-61
2023/05/11 03:31:47;;;;;;;3.72;2.00;;;;;;;12.71;72.66;100435.31;4147152;28;20105;-61
2023/05/11 03:33:54;;;;;;;3.13;1.70;;;;;;;12.69;72.22;100431.81;4146934;28;20050;-61
2023/05/11 03:35:59;;;;;;;5.75;1.58;;;;;;;12.67;72.52;100432.69;4147103;28;20038;-61
2023/05/11 03:38:05;;;;;;;2.05;1.30;;;;;;;12.66;72.50;100430.91;4147218;28;20512;-61
2023/05/11 03:40:09;;;;;;;;;;;;;;;12.55;73.15;100428.28;4147717;28;20042;-61
2023/05/11 03:42:22;;;;;;;5.90;1.35;;;;;;;12.59;73.09;100424.81;4146887;28;19971;-61
2023/05/11 03:44:28;;;;;;;1.83;1.17;;;;;;;12.62;73.10;100429.19;4147062;28;20081;-60
2023/05/11 03:46:35;;;;;;;5.05;1.42;;;;;;;12.64;72.78;100424.84;4147242;28;20092;-61
2023/05/11 03:48:39;;;;;;;1.30;1.10;;;;;;;12.64;72.91;100423.09;4163407;28;20573;-60
2023/05/11 03:50:43;;;;;;;3.38;1.30;;;;;;;12.68;72.84;100422.25;4146999;28;20546;-61
2023/05/11 03:52:47;;;;;;;4.17;1.50;;;;;;;12.70;72.79;100417.03;4146754;28;20108;-60
2023/05/11 03:54:50;;;;;;;2.00;1.48;;;;;;;12.67;72.59;100417.88;4130694;28;20560;-61
2023/05/11 03:56:53;;;;;;;4.22;1.08;;;;;;;12.70;72.61;100422.25;4146951;28;20049;-61
2023/05/11 03:58:56;;;;;;;2.03;1.08;;;;;;;12.72;72.35;100420.53;4146932;28;20046;-61
2023/05/11 04:01:01;;;;;;;2.95;1.40;;;;;;;12.68;72.83;100417.03;4130589;28;20109;-60
2023/05/11 04:03:05;;;;;;;1.23;1.00;;;;;;;12.63;72.66;100423.09;4146602;28;20046;-61
2023/05/11 04:05:09;;;;;;;7.80;1.33;;;;;;;12.59;73.03;100417.00;4146724;28;20037;-61
2023/05/11 04:07:12;;;;;;;3.17;0.90;;;;;;;12.57;73.26;100419.59;4146763;28;20061;-61
2023/05/11 04:09:15;;;;;;;2.90;1.15;;;;;;;12.61;73.27;100424.81;4146795;28;20057;-61
2023/05/11 04:11:18;;;;;;;4.97;1.52;;;;;;;12.61;73.27;100420.47;4130386;28;20054;-61
2023/05/11 04:13:21;;;;;;;1.60;1.10;;;;;;;12.62;73.03;100417.00;4146368;28;20129;-61
2023/05/11 04:15:24;;;;;;;3.55;1.25;;;;;;;12.60;73.01;100423.97;4146612;28;20037;-61
2023/05/11 04:17:28;;;;;;;2.92;1.45;;;;;;;12.60;72.88;100420.47;4164203;28;20384;-61
2023/05/11 04:19:31;;;;;;;6.40;1.52;;;;;;;12.58;72.98;100428.28;4146626;28;20122;-61
2023/05/11 04:21:34;;;;;;;2.65;1.08;;;;;;;12.57;72.87;100429.13;4146625;28;20038;-61
2023/05/11 04:23:38;;;;;;;2.60;1.30;;;;;;;12.52;72.97;100430.88;4146387;28;20084;-61
2023/05/11 04:25:40;;;;;;;5.47;1.50;;;;;;;12.49;73.43;100431.72;4146420;28;20496;-61
2023/05/11 04:27:44;;;;;;;1.10;1.00;;;;;;;12.53;73.48;100438.69;4146628;28;20401;-61
2023/05/11 04:29:47;;;;;;;1.90;1.40;;;;;;;12.53;73.23;100436.09;4146414;28;20240;-61
2023/05/11 04:31:51;;;;;;;1.45;1.10;;;;;;;12.57;73.63;100440.47;4146338;28;20046;-61
2023/05/11 04:33:56;;;;;;;2.40;1.17;;;;;;;12.64;73.25;100443.97;4146269;28;20037;-61
2023/05/11 04:35:59;;;;;;;1.65;1.35;;;;;;;12.63;73.54;100443.94;4146524;28;20194;-60
2023/05/11 04:38:02;;;;;;;2.15;1.10;;;;;;;12.66;73.24;100446.56;4146494;28;20052;-61
2023/05/11 04:40:07;;;;;;;2.92;1.10;;;;;;;12.66;72.88;100450.06;4146503;28;20046;-61
2023/05/11 04:42:14;;;;;;;1.90;1.08;;;;;;;12.66;73.25;100446.56;4146229;28;20053;-61
2023/05/11 04:44:19;;;;;;;2.60;1.25;;;;;;;12.70;73.35;100440.50;4146432;28;20136;-61
2023/05/11 04:46:22;;;;;;;2.10;1.20;;;;;;;12.72;73.01;100446.63;4163994;28;20052;-61
2023/05/11 04:48:26;;;;;;;5.55;1.20;;;;;;;12.74;72.93;100443.13;4146479;28;20034;-61
2023/05/11 04:50:30;;;;;;;2.75;1.50;;;;;;;12.74;72.72;100444.88;4146419;28;20120;-61
2023/05/11 04:52:33;;;;;;;2.05;1.30;;;;;;;12.74;72.91;100447.50;4146050;28;20049;-61
2023/05/11 04:54:38;;;;;;;3.65;1.48;;;;;;;12.79;72.80;100443.19;4146386;28;20046;-61
2023/05/11 04:56:40;;;;;;;3.90;1.58;;;;;;;12.79;72.63;100448.41;4130028;28;20077;-60
2023/05/11 04:58:43;;;;;;;1.70;1.33;;;;;;;12.77;72.74;100447.50;4146376;28;20530;-61
2023/05/11 05:00:46;;;;;;;1.75;1.35;;;;;;;12.77;72.75;100444.91;4146354;28;20133;-61
2023/05/11 05:02:50;;;;;;;1.60;1.33;;;;;;;12.80;72.86;100446.66;4146061;28;20041;-60
2023/05/11 05:04:53;;;;;;;1.98;1.27;;;;;;;12.82;72.72;100447.53;4130126;28;20043;-60
2023/05/11 05:06:57;;;;;;;2.83;1.50;;;;;;;12.85;72.92;100456.25;4130006;28;20046;-61
2023/05/11 05:09:00;;;;;;;2.40;1.10;;;;;;;12.88;72.82;100453.66;4146328;28;20046;-60
2023/05/11 05:11:03;;;;;;;2.38;0.98;;;;;;;12.92;72.96;100449.31;4163774;28;20045;-61
2023/05/11 05:13:06;;;;;;;4.00;1.67;;;;;;;12.95;72.91;100453.69;4145948;28;20221;-61
2023/05/11 05:15:10;;;;;;;1.23;1.13;;;;;;;12.96;73.00;100451.06;4163617;28;20045;-61
2023/05/11 05:17:13;;;;;;;4.50;1.65;;;;;;;12.99;72.98;100453.69;4162523;28;20034;-61
2023/05/11 05:19:16;;;;;;;6.45;1.50;;;;;;;13.03;72.82;100451.97;4146423;28;20065;-61
2023/05/11 05:21:19;;;;;;;2.47;1.60;;;;;;;13.04;72.50;100461.53;4146222;28;20050;-60
2023/05/11 05:23:25;;;;;;;4.30;1.70;;;;;;;12.96;73.04;100452.81;4162221;28;20041;-60
2023/05/11 05:25:28;;;;;;;2.55;1.30;;;;;;;12.93;73.13;100457.13;4160604;22;20385;-65
2023/05/11 05:27:31;;;;;;;1.88;1.48;;;;;;;12.92;73.47;100460.63;4163535;28;20037;-64
2023/05/11 05:29:39;;;;;;;3.65;1.83;;;;;;;12.95;73.55;100458.91;4129726;28;20054;-65
2023/05/11 05:31:42;;;;;;;1.90;1.40;;;;;;;12.99;73.04;100460.66;4146005;28;20054;-64
2023/05/11 05:33:44;;;;;;;7.70;2.28;;;;;;;13.04;72.68;100456.31;4145748;28;20044;-65
2023/05/11 05:35:48;;;;;;;5.25;2.15;;;;;;;13.06;72.55;100465.03;4145949;28;20042;-64
2023/05/11 05:37:51;;;;;;;4.35;2.00;;;;;;;13.14;72.19;100465.94;4146077;28;20045;-65
2023/05/11 05:39:55;;;;;;;4.65;2.47;;;;;;;13.20;71.06;100460.75;4146003;28;20436;-64
2023/05/11 05:42:00;;;;;;;4.93;2.53;;;;;;;13.28;70.64;100474.69;4129907;28;20050;-64
2023/05/11 05:44:03;;;;;;;4.18;2.65;;;;;;;13.30;70.15;100476.44;4148681;28;20046;-64
2023/05/11 05:46:06;;;;;;;4.28;3.22;;;;;;;13.42;68.81;100473.91;4148764;28;20044;-64
2023/05/11 05:48:09;;;;;;;7.10;3.00;;;;;;;13.37;68.22;100470.41;4148786;28;20080;-64
2023/05/11 05:50:13;;;;;;;6.82;4.00;;;;;;;13.43;67.09;100466.06;4148848;28;20048;-64
2023/05/11 05:52:17;;;;;;;6.93;3.70;;;;;;;13.40;67.25;100463.47;4148598;28;20049;-64
2023/05/11 05:54:22;;;;;;;5.13;3.42;;;;;;;13.39;67.67;100473.88;4148619;28;20362;-64
2023/05/11 05:56:26;;;;;;;5.38;3.38;;;;;;;13.31;67.73;100470.34;4148757;28;20038;-64
2023/05/11 05:58:29;;;;;;;9.30;4.75;;;;;;;13.35;67.84;100474.75;4166316;28;20056;-65
2023/05/11 06:00:32;;;;;;;5.93;3.97;;;;;;;13.36;67.76;100476.47;4132282;28;20046;-64
2023/05/11 06:02:40;;;;;;;7.25;4.07;;;;;;;13.47;68.06;100484.38;4132075;28;20548;-64
2023/05/11 06:04:46;;;;;;;6.47;3.83;;;;;;;13.53;67.34;100484.38;4148483;28;20140;-64
2023/05/11 06:06:49;;;;;;;5.30;3.53;;;;;;;13.60;66.07;100476.53;4148527;28;20034;-65
2023/05/11 06:08:53;;;;;;;6.82;4.07;;;;;;;13.65;65.79;100486.13;4148430;28;20080;-65
2023/05/11 06:10:56;;;;;;;7.60;3.55;;;;;;;13.63;65.87;100485.28;4164838;28;20052;-65
2023/05/11 06:13:00;;;;;;;7.45;4.03;;;;;;;13.65;66.25;100488.75;4164427;28;20542;-65
2023/05/11 06:15:04;;;;;;;7.70;4.20;;;;;;;13.83;65.57;100491.41;4164709;28;20129;-65
2023/05/11 06:17:08;;;;;;;7.85;3.78;;;;;;;13.85;65.14;100480.94;4148323;28;20046;-65
2023/05/11 06:19:12;;;;;;;6.07;3.72;;;;;;;13.74;64.15;100491.38;4148373;28;20527;-65
2023/05/11 06:21:15;;;;;;;5.63;3.72;;;;;;;13.60;65.29;100492.22;4148286;28;20125;-65
2023/05/11 06:23:17;;;;;;;7.07;3.22;;;;;;;13.71;64.66;100491.38;4148022;28;20042;-65
2023/05/11 06:25:20;;;;;;;4.45;3.05;;;;;;;13.73;65.44;100493.13;4164461;28;20049;-65
2023/05/11 06:27:23;;;;;;;8.05;3.70;;;;;;;13.91;64.73;100487.03;4148289;28;20124;-65
2023/05/11 06:29:31;;;;;;;7.03;3.63;;;;;;;13.96;64.46;100480.09;4148218;28;20466;-65
2023/05/11 06:31:36;;;;;;;4.40;3.25;;;;;;;13.91;63.92;100487.03;4148113;28;20117;-65
2023/05/11 06:33:40;;;;;;;5.32;3.22;;;;;;;13.84;64.29;100482.66;4164160;28;20048;-64
2023/05/11 06:35:50;;;;;;;3.85;3.05;;;;;;;13.84;64.08;100472.22;4147891;28;20490;-65
2023/05/11 06:37:53;;;;;;;5.18;2.70;;;;;;;13.88;64.70;100481.81;4148070;28;20520;-64
2023/05/11 06:39:56;;;;;;;7.93;3.03;;;;;;;13.94;64.79;100481.84;4148038;28;20049;-64
2023/05/11 06:41:59;;;;;;;5.80;3.30;;;;;;;14.03;63.86;100474.84;4147907;28;20034;-64
2023/05/11 06:44:07;;;;;;;6.35;3.40;;;;;;;14.08;63.37;100473.97;4147941;28;20045;-64
2023/05/11 06:46:16;;;;;;;6.45;3.47;;;;;;;14.14;61.98;100471.34;4147871;28;20084;-64
2023/05/11 06:48:22;;;;;;;3.92;2.65;;;;;;;14.02;63.05;100478.31;4147944;28;20582;-64
2023/05/11 06:50:25;;;;;;;7.38;3.60;;;;;;;13.95;63.23;100478.34;4148047;28;20057;-64
2023/05/11 06:52:29;;;;;;;4.82;2.80;;;;;;;14.08;62.48;100480.97;4147558;28;20434;-64
2023/05/11 06:54:35;;;;;;;6.28;3.40;;;;;;;13.88;63.96;100484.41;4147449;28;20044;-64
2023/05/11 06:56:38;;;;;;;3.97;2.67;;;;;;;13.89;64.14;100478.34;4147644;28;20038;-64
2023/05/11 06:58:41;;;;;;;5.55;3.35;;;;;;;13.87;64.20;100477.47;4131449;28;20046;-64
2023/05/11 07:00:44;;;;;;;6.30;3.30;;;;;;;13.83;64.28;100478.34;4165121;28;20065;-65
2023/05/11 07:02:48;;;;;;;6.43;3.55;;;;;;;14.00;64.61;100470.47;4164965;28;20041;-64
2023/05/11 07:04:51;;;;;;;7.45;4.00;;;;;;;13.96;64.10;100484.44;4165122;28;20041;-64
2023/05/11 07:06:54;;;;;;;4.78;3.13;;;;;;;14.04;64.47;100480.06;4165376;28;20076;-64
2023/05/11 07:08:57;;;;;;;4.45;2.83;;;;;;;14.06;63.61;100480.97;4165082;28;20124;-64
2023/05/11 07:11:00;;;;;;;6.40;3.20;;;;;;;14.02;64.08;100484.44;4147446;28;20069;-64
2023/05/11 07:13:03;;;;;;;4.88;2.78;;;;;;;14.02;64.41;100483.56;4147216;28;20597;-64
2023/05/11 07:15:07;;;;;;;5.15;3.20;;;;;;;14.01;64.32;100485.31;4164787;28;20041;-65
2023/05/11 07:17:10;;;;;;;4.93;2.88;;;;;;;14.03;64.36;100480.06;4165038;28;20119;-65
2023/05/11 07:19:14;;;;;;;6.35;3.20;;;;;;;14.06;63.59;100485.31;4164947;28;20464;-64
2023/05/11 07:21:17;;;;;;;5.18;3.25;;;;;;;14.02;64.16;100481.81;4147440;28;20049;-65
2023/05/11 07:23:20;;;;;;;4.63;2.72;;;;;;;14.04;64.03;100487.06;4164661;28;20045;-65
2023/05/11 07:25:23;;;;;;;4.50;3.13;;;;;;;14.08;64.41;100479.22;4164702;28;20037;-65
2023/05/11 07:27:26;;;;;;;4.82;3.20;;;;;;;14.13;63.32;100487.94;4147226;28;20108;-65
2023/05/11 07:29:29;;;;;;;5.15;3.80;;;;;;;14.11;63.48;100483.56;4164751;28;20128;-65
2023/05/11 07:31:32;;;;;;;16.48;4.43;;;;;;;14.36;62.77;100473.09;4164810;28;20033;-65
2023/05/11 07:33:37;;;;;;;5.30;3.53;;;;;;;14.25;63.00;100483.56;4164484;28;20474;-65
2023/05/11 07:35:42;;;;;;;5.47;3.05;;;;;;;14.15;63.74;100482.72;4164544;28;20095;-65
2023/05/11 07:37:45;;;;;;;5.22;2.97;;;;;;;14.16;64.18;100481.81;4147177;28;20061;-65
2023/05/11 07:39:48;;;;;;;5.07;3.65;;;;;;;14.25;64.03;100481.84;4164664;28;20132;-65
2023/05/11 07:41:51;;;;;;;5.15;3.00;;;;;;;14.26;63.88;100480.94;4164602;28;20037;-65
2023/05/11 07:43:54;;;;;;;8.05;3.38;;;;;;;14.29;63.42;100480.97;4164405;28;20534;-65
2023/05/11 07:45:56;;;;;;;5.88;3.70;;;;;;;14.30;63.38;100480.06;4164427;28;20046;-65
2023/05/11 07:47:59;;;;;;;4.50;3.13;;;;;;;14.38;62.81;100479.19;4164909;28;20046;-65
2023/05/11 07:50:02;;;;;;;7.95;3.45;;;;;;;14.35;63.24;100487.91;4164472;28;20111;-65
2023/05/11 07:52:06;;;;;;;4.32;3.08;;;;;;;14.39;63.11;100478.34;4164408;28;20107;-66
2023/05/11 07:54:09;;;;;;;4.80;3.20;;;;;;;14.39;63.51;100483.56;4146840;28;20041;-65
2023/05/11 07:56:12;;;;;;;5.57;4.15;;;;;;;14.36;63.63;100491.41;4146839;28;20073;-65
2023/05/11 07:58:15;;;;;;;6.93;3.10;;;;;;;14.40;62.82;100480.94;4164352;28;20045;-65
2023/05/11 08:00:18;;;;;;;5.15;3.65;;;;;;;14.51;63.10;100482.66;4163013;28;20467;-65
2023/05/11 08:02:22;;;;;;;5.65;2.88;;;;;;;14.62;63.39;100487.03;4164066;28;20045;-65
2023/05/11 08:04:27;;;;;;;5.30;3.20;;;;;;;14.70;63.09;100478.31;4164254;28;20038;-65
2023/05/11 08:06:36;;;;;;;8.60;4.05;;;;;;;14.78;62.70;100479.16;4147083;28;20045;-65
2023/05/11 08:08:40;;;;;;;4.28;3.10;;;;;;;14.82;62.64;100484.38;4164293;28;20212;-65
2023/05/11 08:10:43;;;;;;;5.97;3.72;;;;;;;14.66;62.30;100478.31;4146645;28;20184;-65
2023/05/11 08:12:46;;;;;;;5.22;4.00;;;;;;;14.68;62.24;100480.06;4163933;28;20045;-65
2023/05/11 08:14:49;;;;;;;7.38;3.80;;;;;;;14.75;63.04;100487.88;4163945;28;20061;-65
2023/05/11 08:16:52;;;;;;;7.25;3.88;;;;;;;14.83;62.80;100490.47;4164129;28;20049;-65
2023/05/11 08:18:54;;;;;;;6.03;4.03;;;;;;;14.73;62.54;100487.00;4146580;28;20042;-65
2023/05/11 08:20:57;;;;;;;6.00;3.90;;;;;;;14.79;63.03;100489.63;4164022;28;20116;-65
2023/05/11 08:23:00;;;;;;;5.82;3.40;;;;;;;14.79;62.96;100488.72;4163868;28;20411;-65
2023/05/11 08:25:05;;;;;;;6.72;3.95;;;;;;;14.87;62.70;100481.75;4163805;28;20111;-64
2023/05/11 08:27:08;;;;;;;5.53;3.58;;;;;;;14.91;63.87;100485.22;4146608;28;20096;-65
2023/05/11 08:29:12;;;;;;;7.20;4.88;;;;;;;14.76;62.63;100489.63;4163940;28;20052;-65
2023/05/11 08:31:17;;;;;;;5.25;3.80;;;;;;;14.77;63.31;100485.25;4164008;28;20052;-65
2023/05/11 08:33:20;;;;;;;6.72;3.50;;;;;;;14.80;62.77;100490.47;4130001;28;20537;-65
2023/05/11 08:35:40;;;;;;;6.65;4.15;;;;;;;14.69;61.86;100489.63;4163779;28;20055;-65
2023/05/11 08:37:42;;;;;;;7.43;4.05;;;;;;;14.71;62.71;100490.53;4163957;28;20087;-66
2023/05/11 08:39:45;;;;;;;4.75;3.72;;;;;;;14.81;62.32;100487.00;4163839;28;20038;-65
2023/05/11 08:41:51;;;;;;;6.32;4.10;;;;;;;14.95;63.52;100489.56;4163787;28;20042;-65
2023/05/11 08:43:55;;;;;;;;;;;;;;;14.96;63.22;100491.31;4164119;28;20041;-65
2023/05/11 08:46:02;;;;;;;7.88;4.55;;;;;;;14.79;62.53;100488.72;4163756;28;19928;-65
2023/05/11 08:48:06;;;;;;;7.22;4.35;;;;;;;14.81;62.59;100490.47;4163965;28;20045;-65
2023/05/11 08:50:09;;;;;;;7.13;4.28;;;;;;;14.84;62.30;100482.63;4146242;28;20145;-65
2023/05/11 08:52:15;;;;;;;7.70;4.47;;;;;;;14.97;62.85;100488.69;4146064;28;20088;-66
2023/05/11 08:54:18;;;;;;;5.38;3.40;;;;;;;15.04;62.52;100483.41;4163847;28;20045;-65
2023/05/11 08:56:22;;;;;;;6.03;3.35;;;;;;;15.09;63.24;100482.53;4163744;28;20513;-65
2023/05/11 08:58:27;;;;;;;5.50;3.75;;;;;;;15.17;62.99;100490.34;4163762;28;20041;-65
2023/05/11 09:00:30;;;;;;;;;;;;;;;15.23;63.17;100484.22;4164222;28;20041;-65
2023/05/11 09:02:35;;;;;;;9.52;4.57;;;;;;;15.23;62.73;100492.06;4163452;28;19921;-65
2023/05/11 09:04:38;;;;;;;6.93;3.97;;;;;;;15.13;62.02;100484.25;4146215;28;20515;-65
2023/05/11 09:06:42;;;;;;;8.43;4.40;;;;;;;15.17;61.98;100490.34;4163755;28;20048;-65
2023/05/11 09:08:45;;;;;;;6.90;3.50;;;;;;;15.21;61.51;100492.09;4146159;28;20050;-65
2023/05/11 09:10:49;;;;;;;6.75;3.60;;;;;;;15.24;62.21;100489.44;4146083;28;20042;-65
2023/05/11 09:12:52;;;;;;;6.88;3.28;;;;;;;15.33;62.49;100494.66;4163630;28;20041;-66
2023/05/11 09:14:56;;;;;;;5.78;3.42;;;;;;;15.36;61.86;100486.78;4163509;28;20049;-65
2023/05/11 09:17:04;;;;;;;3.83;2.75;;;;;;;15.36;61.95;100489.41;4165383;28;20510;-66
2023/05/11 09:19:07;;;;;;;4.80;3.30;;;;;;;15.45;62.04;100485.88;4166852;28;20045;-65
2023/05/11 09:21:10;;;;;;;5.18;3.58;;;;;;;15.52;62.02;100490.19;4149128;28;20054;-65
2023/05/11 09:23:16;;;;;;;5.30;2.97;;;;;;;15.57;61.33;100486.69;4166544;28;20065;-66
2023/05/11 09:25:19;;;;;;;4.65;2.60;;;;;;;15.61;62.10;100486.66;4148923;28;20041;-65
2023/05/11 09:27:24;;;;;;;5.30;3.15;;;;;;;15.63;61.63;100484.88;4149147;28;20089;-65
2023/05/11 09:29:27;;;;;;;5.80;3.63;;;;;;;15.62;60.92;100490.13;4166629;28;20030;-65
2023/05/11 09:31:41;;;;;;;7.00;3.72;;;;;;;15.63;60.93;100486.63;4166603;28;20080;-66
2023/05/11 09:33:44;;;;;;;7.97;3.33;;;;;;;15.66;61.26;100487.47;4148787;28;20144;-65
2023/05/11 09:35:47;;;;;;;6.78;3.85;;;;;;;15.70;60.75;100483.09;4166469;28;20030;-65
2023/05/11 09:38:03;;;;;;;6.93;3.67;;;;;;;15.77;60.63;100489.16;4166527;28;20045;-65
2023/05/11 09:40:10;;;;;;;7.80;4.32;;;;;;;15.73;60.01;100490.06;4166541;28;20037;-65
2023/05/11 09:42:17;;;;;;;7.68;4.38;;;;;;;15.70;60.03;100483.09;4166234;28;20049;-65